Southwestern Research Station, Arizona Weather observations

Data are for 10 minute period ending at time listed.
 Day   Time   Solar   Ave.   Ave.  Ave.  Vector  Max.   Baro.   Total    
  of    of     Rad.   Air    Rel.  Wind   Wind   Wind  Press.  Precip.   
Year   Day            Temp.  Hum.  Speed  Dir.   Gust                    
2026   (PST)  Kw/m2    F      %     mph   deg.    mph    mb.     in.     
-------------------------------------------------------------------------
 245    3:20   0.00   56.3    96    0.0   271     0.6   837.8    0.00 
 245    3:30   0.00   56.0    97    0.7   257     2.3   837.8    0.00 
 245    3:40   0.00   56.0    97    0.0     0     0.0   837.8    0.00 
 245    3:50   0.00   56.1    97    0.1   277     0.9   837.7    0.00 
 245    4:00   0.00   56.3    98    0.4   273     2.6   837.7    0.00 
 245    4:10   0.00   56.2    97    0.0   315     1.4   837.7    0.00 
 245    4:20   0.00   56.0    97    0.0   239     0.5   837.6    0.00 
 245    4:30   0.00   56.0    98    0.1   270     1.2   837.7    0.00 
 245    4:40   0.00   56.0    98    0.6   335     2.3   837.6    0.00 
 245    4:50   0.00   55.9    97    0.3   248     1.5   837.6    0.00 
 245    5:00   0.00   55.9    98    0.3   309     1.8   837.7    0.00 
 245    5:10   0.00   55.7    98    0.0   209     0.7   837.8    0.00 
 245    5:20   0.00   55.8    98    0.1   286     0.7   837.8    0.00 
 245    5:30   0.00   55.9    98    0.0    32     0.6   837.9    0.00 
 245    5:40   0.00   56.0    98    0.7   266     2.0   838.0    0.00 
 245    5:50   0.00   55.8    98    0.1   264     1.8   838.1    0.00 
 245    6:00   0.01   55.6    98    0.2   267     1.7   838.3    0.00 
 245    6:10   0.01   55.6    98    0.2   254     1.2   838.3    0.00 
 245    6:20   0.01   55.8    98    0.5   259     2.3   838.5    0.00 
 245    6:30   0.03   56.3    98    0.0   275     0.7   838.6    0.00 
 245    6:40   0.04   56.7    98    0.0   291     0.9   838.7    0.00 
 245    6:50   0.05   57.2    98    0.0   252     0.5   838.7    0.00 
 245    7:00   0.14   58.1    98    0.0   248     1.0   838.8    0.00 
 245    7:10   0.18   59.5    96    0.6    16     1.9   838.9    0.00 
 245    7:20   0.21   60.7    94    0.3    82     2.3   838.9    0.00 
 245    7:30   0.24   62.4    90    0.3    99     1.8   839.0    0.00 
 245    7:40   0.28   65.9    77    0.4   134     2.4   839.1    0.00 
 245    7:50   0.31   69.0    70    0.1   164     0.8   839.2    0.00 
 245    8:00   0.32   70.8    62    0.7   121     2.7   839.3    0.00 
 245    8:10   0.38   72.4    59    0.8   139     2.3   839.6    0.00 
 245    8:20   0.41   73.2    59    1.1   124     3.5   839.5    0.00 
 245    8:30   0.36   74.5    56    2.2   102     6.1   839.6    0.00 
 245    8:40   0.31   74.2    57    1.2   102     4.1   839.6    0.00 
 245    8:50   0.38   74.3    56    2.5   103     7.3   839.5    0.00 
 245    9:00   0.50   75.3    56    2.6   109     7.2   839.5    0.00 
 245    9:10   0.59   76.4    54    2.9   104     6.3   839.5    0.00 
 245    9:20   0.59   77.4    51    2.6    99     5.6   839.5    0.00 
 245    9:30   0.58   78.2    51    2.1   105     5.3   839.4    0.00 
 245    9:40   0.63   78.4    50    2.9   107     5.7   839.4    0.00 
 245    9:50   0.67   79.0    48    1.9   134     5.7   839.3    0.00 
 245   10:00   0.69   79.8    48    2.5   118     5.6   839.3    0.00 
 245   10:10   0.73   80.4    47    2.5   125     5.5   839.3    0.00 
 245   10:20   0.80   80.9    46    2.6   110     8.0   839.2    0.00 
 245   10:30   0.90   81.3    46    3.5   101     9.4   839.1    0.00 
 245   10:40   0.39   80.5    47    4.6    93    11.2   839.1    0.00 
 245   10:50   0.07   77.8    50    2.3    56     7.3   839.1    0.00 
 245   11:00   0.05   76.2    56    1.5   123     4.5   839.3    0.01 
 245   11:10   0.04   69.9    81    3.4   208    10.1   839.7    0.07 
 245   11:20   0.05   66.7    91    2.8   224     9.3   840.0    0.07 
 245   11:30   0.04   65.6    95    0.4   191     2.8   840.3    0.10 
 245   11:40   0.05   64.9    96    0.9   281     5.3   840.5    0.16 
 245   11:50   0.06   64.7    98    0.3    32     2.4   840.4    0.07 
 245   12:00   0.11   65.1    99    0.1   310     1.5   840.2    0.03 
 245   12:10   0.19   64.5    98    0.2   250     1.6   840.0    0.00 
 245   12:20   0.36   65.1    99    0.1    21     1.1   839.8    0.01 
 245   12:30   0.40   65.8    98    0.2    86     1.6   839.5    0.00 
 245   12:40   0.29   66.0    97    0.2   218     1.2   839.3    0.00 
 245   12:50   0.22   66.6    96    0.6   192     2.0   839.1    0.00 
 245   13:00   0.22   66.6    96    0.4   247     2.1   839.0    0.00 
 245   13:10   0.18   66.7    96    0.2   194     1.3   838.9    0.00 
 245   13:20   0.40   66.9    96    0.4   223     1.6   838.7    0.00 
 245   13:30   0.34   67.4    90    0.6   203     2.3   838.5    0.00 
 245   13:40   0.30   68.8    88    0.2   262     1.9   838.3    0.00 
 245   13:50   0.35   69.8    83    0.1   126     1.5   838.2    0.00 
 245   14:00   0.30   70.8    82    0.2    86     1.7   837.9    0.00 
 245   14:10   0.25   71.5    81    0.3   157     1.1   837.8    0.00 
 245   14:20   0.16   72.1    81    0.4   240     2.0   837.8    0.00 
 245   14:30   0.09   71.8    81    0.1   194     0.7   837.9    0.00 
 245   14:40   0.08   71.3    84    1.2   324     5.0   837.9    0.00 
 245   14:50   0.09   70.0    86    1.1   354     4.2   837.9    0.00 
 245   15:00   0.11   69.5    88    0.8   313     5.3   837.7    0.00 
 245   15:10   0.15   69.0    90    0.7   292     2.5   837.6    0.00 
 245   15:20   0.25   69.3    94    0.2   203     1.0   837.5    0.00 
 245   15:30   0.44   70.3    88    1.2   225     5.0   837.3    0.01 
 245   15:40   0.24   71.6    80    0.5   233     2.4   837.2    0.00 
 245   15:50   0.25   72.3    78    0.8   216     2.1   837.1    0.00 
 245   16:00   0.44   73.0    73    0.2   232     1.5   837.0    0.00 
 245   16:10   0.46   74.8    61    0.1    12     1.7   836.8    0.00 
 245   16:20   0.43   76.3    58    0.4   342     1.9   836.6    0.00 
 245   16:30   0.32   77.0    58    0.3   145     2.0   836.5    0.00 
 245   16:40   0.31   76.5    62    0.1   210     1.2   836.5    0.00 
 245   16:50   0.30   77.8    59    0.5   281     2.1   836.4    0.00 
 245   17:00   0.10   77.6    62    0.1   276     0.9   836.2    0.00 
 245   17:10   0.07   75.4    71    0.0     0     0.0   836.2    0.00 
 245   17:20   0.07   73.5    80    0.1   264     1.9   836.2    0.00 
 245   17:30   0.10   72.9    82    0.7   316     3.1   836.3    0.00 
 245   17:40   0.07   72.9    79    0.3   307     1.7   836.4    0.00 
 245   17:50   0.06   72.2    83    0.1   262     1.5   836.4    0.00 
 245   18:00   0.04   71.3    84    0.3   244     2.0   836.4    0.00 
 245   18:10   0.03   71.0    87    0.1   274     1.5   836.4    0.00 
 245   18:20   0.02   70.5    87    0.2   293     1.5   836.5    0.00 
 245   18:30   0.01   69.8    88    0.0   299     1.0   836.6    0.00 
 245   18:40   0.01   69.1    90    0.2   272     1.0   836.6    0.00 
 245   18:50   0.00   68.8    92    0.2   257     1.5   836.7    0.00 
 245   19:00   0.00   68.4    92    0.2   266     2.0   836.7    0.00 
 245   19:10   0.00   67.8    93    0.6   231     1.6   836.7    0.00 
 245   19:20   0.00   67.2    93    0.8   242     2.3   836.9    0.00 
 245   19:30   0.00   66.9    93    0.9     4     2.9   837.0    0.00 
 245   19:40   0.00   66.6    93    0.5   268     2.4   837.0    0.00 
 245   19:50   0.00   66.4    94    0.4   250     2.7   837.1    0.00 
 245   20:00   0.00   66.3    93    1.1   310     3.9   837.2    0.00 
 245   20:10   0.00   66.5    92    0.3   266     2.1   837.4    0.00 
 245   20:20   0.00   66.2    93    0.1   233     1.4   837.5    0.00 
 245   20:30   0.00   66.0    95    0.1   254     1.5   837.6    0.00 
 245   20:40   0.00   65.9    93    0.2   300     1.7   837.6    0.00 
 245   20:50   0.00   66.0    94    0.0   264     0.1   837.7    0.00 
 245   21:00   0.00   65.5    94    0.6   310     2.1   837.6    0.00 
 245   21:10   0.00   65.5    93    0.0     0     0.0   837.7    0.00 
 245   21:20   0.00   65.4    94    0.0     0     0.0   837.8    0.00 
 245   21:30   0.00   65.2    95    0.8   336     3.1   837.7    0.00 
 245   21:40   0.00   65.1    93    0.7   286     2.8   837.7    0.00 
 245   21:50   0.00   65.2    91    0.3   240     1.7   837.7    0.00 
 245   22:00   0.00   65.0    92    0.3   294     1.6   837.7    0.00 
 245   22:10   0.00   65.0    92    0.1   358     1.1   837.6    0.00 
 245   22:20   0.00   65.0    93    0.7   269     2.7   837.6    0.00 
 245   22:30   0.00   64.8    94    0.0     0     0.0   837.6    0.00 
 245   22:40   0.00   64.7    94    0.5   272     2.2   837.6    0.00 
 245   22:50   0.00   64.6    95    0.0     0     0.0   837.5    0.00 
 245   23:00   0.00   64.3    95    0.0     0     0.0   837.5    0.00 
 245   23:10   0.00   64.2    95    0.2   328     1.5   837.5    0.00 
 245   23:20   0.00   64.3    93    0.9   307     2.0   837.5    0.00 
 245   23:30   0.00   64.6    91    0.1   358     1.2   837.5    0.00 
 245   23:40   0.00   64.5    93    0.1   255     1.2   837.5    0.00 
 245   23:50   0.00   64.3    94    0.0     0     0.0   837.6    0.00 
 246    0:00   0.00   64.1    95    0.0     0     0.0   837.6    0.00 
 246    0:10   0.00   64.0    95    0.0   196     0.8   837.7    0.00 
 246    0:20   0.00   64.0    96    0.1   223     1.1   837.6    0.00 
 246    0:30   0.00   63.7    96    0.1   250     1.0   837.6    0.00 
 246    0:40   0.00   63.8    97    0.8   304     2.7   837.6    0.00 
 246    0:50   0.00   63.8    97    0.1   194     1.6   837.6    0.00 
 246    1:00   0.00   63.9    96    0.0   309     0.7   837.6    0.00 
 246    1:10   0.00   63.9    96    0.1   282     1.0   837.5    0.00 
 246    1:20   0.00   63.9    97    0.1   303     0.9   837.4    0.00 
 246    1:30   0.00   63.9    95    0.0     0     0.0   837.3    0.00 
 246    1:40   0.00   64.1    95    0.4   339     1.8   837.3    0.00 
 246    1:50   0.00   64.0    96    0.1   234     1.4   837.3    0.00 
 246    2:00   0.00   63.8    96    0.1   274     1.4   837.2    0.00 
 246    2:10   0.00   63.8    97    0.2   337     1.4   837.1    0.00 
 246    2:20   0.00   63.7    97    0.3   325     1.8   837.0    0.00 
 246    2:30   0.00   63.9    96    0.3   270     1.9   837.0    0.00 
 246    2:40   0.00   63.9    96    0.0   249     0.4   837.0    0.00 
 246    2:50   0.00   63.8    97    0.4   299     1.5   837.0    0.00 
 246    3:00   0.00   63.8    96    0.3   325     1.6   837.0    0.00 
 246    3:10   0.00   63.9    96    0.2   360     1.6   837.0    0.00 

Return to Southwestern Research Station graphs page.


Western Regional Climate Center,wrcc@dri.edu